createdAt,value
2019-02-08T09:44:31.976Z,5.58
2019-02-08T09:47:34.316Z,5.80
2019-02-08T09:50:33.246Z,5.42
2019-02-08T09:53:19.150Z,5.87
2019-02-08T09:56:15.206Z,5.50
2019-02-08T09:59:18.929Z,5.67
2019-02-08T10:02:16.891Z,6.10
2019-02-08T10:05:08.434Z,5.45
2019-02-08T10:07:53.892Z,5.05
2019-02-08T10:10:33.094Z,5.53
2019-02-08T10:13:22.966Z,5.55
2019-02-08T10:16:12.929Z,5.25
2019-02-08T10:19:03.209Z,5.15
2019-02-08T10:21:56.318Z,5.40
2019-02-08T10:24:55.817Z,5.37
2019-02-08T10:27:58.025Z,5.53
2019-02-08T10:30:40.618Z,5.17
2019-02-08T10:33:13.954Z,4.95
2019-02-08T10:36:10.393Z,4.72
2019-02-08T10:39:03.634Z,5.00
2019-02-08T10:42:01.563Z,4.15
2019-02-08T10:44:47.222Z,4.40
2019-02-08T10:47:46.643Z,4.62
2019-02-08T10:50:26.023Z,4.60
2019-02-08T10:53:13.321Z,4.22
2019-02-08T10:55:52.746Z,4.97
2019-02-08T10:58:40.050Z,4.22
2019-02-08T11:01:41.752Z,4.70
2019-02-08T11:04:24.627Z,4.30
2019-02-08T11:07:09.945Z,4.55
2019-02-08T11:09:57.024Z,4.30
2019-02-08T11:12:27.745Z,5.03
2019-02-08T11:15:17.825Z,4.60
2019-02-08T11:18:00.456Z,4.33
2019-02-08T11:20:27.848Z,4.15
2019-02-08T11:22:55.274Z,4.35
2019-02-08T11:25:22.813Z,4.83
2019-02-08T11:27:50.223Z,4.15
2019-02-08T11:30:17.634Z,4.92
2019-02-08T11:32:45.059Z,4.15
2019-02-08T11:35:13.593Z,4.67
2019-02-08T11:37:41.002Z,4.25
2019-02-08T11:40:17.961Z,4.50
2019-02-08T11:42:45.758Z,4.80
2019-02-08T11:45:15.672Z,4.45
2019-02-08T11:47:43.124Z,4.25
2019-02-08T11:50:19.525Z,4.37
2019-02-08T11:52:46.966Z,4.50
2019-02-08T11:55:14.405Z,4.15
2019-02-08T11:57:41.916Z,3.80
2019-02-08T12:00:18.009Z,3.80
2019-02-08T12:02:45.406Z,4.05
2019-02-08T12:05:12.833Z,4.37
2019-02-08T12:07:40.227Z,4.03
2019-02-08T12:10:08.682Z,4.05
2019-02-08T12:12:36.138Z,4.17
2019-02-08T12:15:15.359Z,4.28
2019-02-08T12:17:42.753Z,4.20
2019-02-08T12:20:10.182Z,4.10
2019-02-08T12:22:37.581Z,3.98
2019-02-08T12:25:08.254Z,4.60
2019-02-08T12:27:35.649Z,4.40
2019-02-08T12:30:06.314Z,4.28
2019-02-08T12:32:33.716Z,4.53
2019-02-08T12:35:01.126Z,4.12
2019-02-08T12:37:29.494Z,4.30
2019-02-08T12:39:56.905Z,4.30
2019-02-08T12:42:24.302Z,4.65
2019-02-08T12:44:51.713Z,3.90
2019-02-08T12:47:19.105Z,4.12
2019-02-08T12:49:46.756Z,4.40
2019-02-08T12:52:14.201Z,4.00
2019-02-08T12:54:41.673Z,4.25
2019-02-08T12:57:09.110Z,4.67
2019-02-08T12:59:36.518Z,4.50
2019-02-08T13:02:04.108Z,4.20
2019-02-08T13:04:31.789Z,4.83
2019-02-08T13:06:59.213Z,4.83
2019-02-08T13:09:27.055Z,4.80
2019-02-08T13:11:54.485Z,4.50
2019-02-08T13:14:21.933Z,4.83
2019-02-08T13:16:49.346Z,5.75
2019-02-08T13:19:16.850Z,6.15
2019-02-08T13:21:44.258Z,5.67
2019-02-08T13:24:11.663Z,5.47
2019-02-08T13:26:39.073Z,6.10
2019-02-08T13:29:06.508Z,5.42
2019-02-08T13:31:33.917Z,4.75
2019-02-08T13:34:01.318Z,5.25
2019-02-08T13:36:28.765Z,5.62
2019-02-08T13:38:56.197Z,5.78
2019-02-08T13:41:23.670Z,5.83
2019-02-08T13:43:51.072Z,5.35
2019-02-08T13:46:18.486Z,5.65
2019-02-08T13:48:45.895Z,5.62
2019-02-08T13:51:13.313Z,6.17
2019-02-08T13:53:40.722Z,5.80
2019-02-08T13:56:08.117Z,5.78
2019-02-08T13:58:35.512Z,5.53
2019-02-08T14:01:03.086Z,5.75
2019-02-08T14:03:30.478Z,5.65
2019-02-08T14:05:57.874Z,5.60
2019-02-08T14:08:25.285Z,5.97
2019-02-08T14:10:52.682Z,5.20
2019-02-08T14:13:20.166Z,5.10
2019-02-08T14:15:47.546Z,5.45
2019-02-08T14:18:14.961Z,5.70
2019-02-08T14:20:42.356Z,5.47
2019-02-08T14:23:09.839Z,5.30
2019-02-08T14:25:37.280Z,5.25
2019-02-08T14:28:04.763Z,5.45
2019-02-08T14:30:34.690Z,5.55
2019-02-08T14:33:02.166Z,5.53
2019-02-08T14:35:29.656Z,5.30
2019-02-08T14:37:59.516Z,4.90
2019-02-08T14:40:28.802Z,5.08
2019-02-08T14:42:56.210Z,5.00
2019-02-08T14:45:23.607Z,4.90
2019-02-08T14:47:51.022Z,4.97
2019-02-08T14:50:21.114Z,4.92
